createdAt,value
2022-08-17T00:01:10.916Z,6.18
2022-08-17T00:03:39.630Z,5.88
2022-08-17T00:06:08.549Z,6.07
2022-08-17T00:08:36.355Z,7.00
2022-08-17T00:11:01.315Z,6.15
2022-08-17T00:13:28.279Z,6.57
2022-08-17T04:08:20.854Z,8.70
2022-08-17T04:10:44.933Z,8.30
2022-08-17T04:13:09.574Z,8.77
2022-08-17T04:15:33.997Z,8.50
2022-08-17T04:17:58.250Z,8.45
2022-08-17T04:20:25.170Z,9.00
2022-08-17T04:23:02.132Z,8.75
2022-08-17T04:25:28.323Z,9.02
2022-08-17T04:27:52.319Z,8.98
2022-08-17T04:30:16.560Z,8.80
2022-08-17T04:33:03.640Z,8.55
2022-08-17T04:35:35.690Z,8.68
2022-08-17T04:38:00.129Z,8.10
2022-08-17T04:40:45.077Z,7.55
2022-08-17T04:43:14.110Z,7.82
2022-08-17T04:45:55.507Z,8.35
2022-08-17T04:48:20.842Z,7.85
2022-08-17T04:50:49.005Z,8.50
2022-08-17T04:53:13.175Z,7.70
2022-08-17T04:55:41.441Z,7.85
2022-08-17T04:58:06.741Z,7.78
2022-08-17T05:00:30.615Z,7.95
2022-08-17T05:02:57.059Z,7.80
2022-08-17T05:05:23.261Z,7.20
2022-08-17T05:07:47.413Z,6.93
2022-08-17T05:10:11.945Z,6.90
2022-08-17T05:12:37.199Z,6.32
2022-08-17T05:15:01.304Z,7.03
2022-08-17T05:17:25.600Z,7.05
2022-08-17T05:19:51.997Z,7.10
2022-08-17T05:22:16.566Z,6.10
2022-08-17T05:24:43.619Z,6.40
2022-08-17T05:27:19.074Z,7.20
2022-08-17T05:29:44.274Z,6.63
2022-08-17T05:32:38.224Z,6.18
2022-08-17T05:35:01.064Z,6.30
2022-08-17T05:37:26.109Z,6.68
2022-08-17T05:39:50.036Z,5.97
2022-08-17T05:42:13.718Z,6.72
2022-08-17T05:44:37.354Z,6.45
2022-08-17T05:47:03.522Z,6.43
2022-08-17T05:49:29.737Z,6.03
2022-08-17T05:52:20.350Z,6.05
2022-08-17T05:55:00.095Z,5.97
2022-08-17T05:57:53.608Z,5.38
2022-08-17T06:00:30.112Z,5.95
2022-08-17T06:03:13.812Z,5.35
2022-08-17T06:05:56.022Z,5.15
2022-08-17T06:08:28.352Z,5.22
2022-08-17T06:10:59.451Z,5.65
2022-08-17T06:13:37.613Z,5.18
2022-08-17T06:16:33.050Z,5.57
2022-08-17T06:19:02.614Z,4.90
2022-08-17T06:21:32.141Z,4.72
2022-08-17T06:24:04.061Z,5.32
2022-08-17T06:26:42.751Z,4.88
2022-08-17T06:29:20.515Z,5.57
2022-08-17T06:31:44.319Z,4.95
2022-08-17T06:34:13.302Z,5.60
2022-08-17T06:36:50.715Z,5.93
2022-08-17T06:39:31.478Z,6.00
2022-08-17T06:42:06.672Z,5.78
2022-08-17T06:44:43.550Z,7.35
2022-08-17T06:47:28.552Z,7.13
2022-08-17T06:50:08.029Z,6.97
2022-08-17T06:52:55.544Z,7.70
2022-08-17T06:55:27.493Z,8.48
2022-08-17T06:57:57.881Z,8.90
2022-08-17T07:00:26.376Z,8.40
2022-08-17T07:02:56.880Z,9.27
2022-08-17T07:23:19.074Z,12.90
2022-08-17T07:25:42.761Z,12.13
2022-08-17T07:28:08.189Z,11.88
2022-08-17T07:30:44.666Z,11.48
2022-08-17T07:33:19.933Z,13.02
2022-08-17T07:35:48.261Z,12.85
2022-08-17T07:38:25.416Z,13.57
2022-08-17T07:41:03.933Z,11.93
2022-08-17T07:43:31.226Z,12.63
2022-08-17T07:46:44.864Z,13.13
2022-08-17T07:49:37.850Z,14.73
2022-08-17T07:52:48.045Z,14.73
2022-08-17T07:54:52.175Z,14.30
2022-08-17T07:57:35.827Z,13.90
2022-08-17T08:00:23.784Z,14.77
2022-08-17T08:03:27.308Z,16.00
2022-08-17T08:05:56.531Z,15.32
2022-08-17T08:08:29.148Z,15.95
2022-08-17T08:11:05.415Z,17.20
2022-08-17T08:13:32.347Z,16.42
2022-08-17T08:15:58.624Z,15.98
2022-08-17T08:18:53.803Z,17.65
2022-08-17T08:21:14.531Z,16.88
2022-08-17T08:23:46.388Z,15.98
2022-08-17T08:26:27.576Z,17.40
2022-08-17T08:29:04.550Z,17.00
2022-08-17T08:31:42.571Z,17.02
2022-08-17T08:34:53.207Z,18.77
2022-08-17T08:37:17.694Z,19.10
2022-08-17T08:39:57.118Z,19.20
2022-08-17T08:42:32.942Z,18.83
2022-08-17T08:45:06.787Z,18.35
2022-08-17T08:47:51.373Z,19.23
2022-08-17T08:50:36.989Z,21.83
2022-08-17T08:53:28.967Z,20.70
2022-08-17T08:55:59.643Z,19.88
2022-08-17T08:58:41.312Z,18.75
2022-08-17T09:01:18.086Z,19.10
2022-08-17T09:04:24.680Z,21.27
2022-08-17T09:07:03.623Z,20.65
2022-08-17T09:09:39.360Z,20.85
2022-08-17T09:12:13.817Z,22.27
2022-08-17T09:14:46.928Z,22.42
2022-08-17T09:17:16.415Z,21.23
2022-08-17T09:19:49.050Z,19.45
2022-08-17T09:22:31.731Z,21.60
2022-08-17T09:25:06.854Z,23.23
2022-08-17T09:27:38.010Z,22.50
2022-08-17T09:30:09.000Z,21.52
2022-08-17T09:32:39.540Z,22.40
2022-08-17T09:35:10.695Z,21.08
2022-08-17T09:37:48.171Z,23.00
2022-08-17T09:40:22.672Z,22.50
2022-08-17T09:42:51.230Z,22.75
2022-08-17T09:45:33.374Z,21.73
2022-08-17T09:48:04.844Z,21.65
2022-08-17T09:51:03.440Z,22.23
2022-08-17T09:53:20.661Z,23.75
2022-08-17T09:56:10.564Z,24.02
2022-08-17T09:59:00.539Z,23.88
2022-08-17T10:01:36.690Z,24.13
2022-08-17T10:04:23.822Z,24.48
2022-08-17T10:06:58.719Z,24.70
2022-08-17T10:09:40.681Z,26.40
2022-08-17T10:12:21.485Z,25.90
2022-08-17T10:15:07.970Z,26.67
2022-08-17T10:17:44.972Z,25.20
2022-08-17T10:20:15.921Z,23.05
2022-08-17T10:23:04.448Z,23.23
2022-08-17T10:25:55.678Z,25.05
2022-08-17T10:28:28.735Z,25.10
2022-08-17T10:31:16.599Z,26.42
2022-08-17T10:33:58.171Z,27.45
2022-08-17T10:36:30.270Z,24.65
2022-08-17T10:39:05.437Z,26.63
2022-08-17T10:41:40.313Z,25.17
2022-08-17T10:44:37.210Z,25.40
2022-08-17T10:47:10.514Z,26.50
2022-08-17T10:49:36.804Z,25.80
2022-08-17T10:52:03.583Z,26.20
2022-08-17T10:54:47.394Z,27.30
2022-08-17T10:57:42.252Z,25.23
2022-08-17T11:00:14.850Z,24.73
2022-08-17T11:02:49.878Z,24.20
2022-08-17T11:05:31.603Z,24.67
2022-08-17T11:08:36.286Z,25.05
2022-08-17T11:11:19.890Z,23.65
2022-08-17T11:14:07.582Z,23.65
2022-08-17T11:16:45.672Z,24.10
2022-08-17T11:19:47.669Z,23.88
2022-08-17T11:22:43.822Z,24.00
2022-08-17T11:25:18.307Z,23.35
2022-08-17T11:27:42.447Z,25.92
2022-08-17T11:30:10.546Z,25.33
2022-08-17T11:32:42.946Z,25.13
2022-08-17T11:35:30.311Z,26.75
2022-08-17T11:38:14.036Z,26.92
2022-08-17T11:41:12.962Z,28.05
2022-08-17T11:44:17.349Z,29.23
2022-08-17T11:47:16.282Z,28.85
2022-08-17T11:50:33.689Z,27.10
2022-08-17T11:52:58.697Z,31.33
2022-08-17T11:56:03.650Z,29.80
2022-08-17T11:58:43.271Z,31.67
2022-08-17T12:01:13.501Z,30.98
2022-08-17T12:03:57.048Z,29.60
2022-08-17T12:06:43.596Z,30.95
2022-08-17T12:09:15.826Z,32.75
2022-08-17T12:12:01.706Z,36.47
2022-08-17T12:14:51.696Z,33.60
2022-08-17T12:17:41.328Z,36.67
2022-08-17T12:20:23.278Z,35.15
2022-08-17T12:23:01.376Z,37.75
2022-08-17T12:25:35.258Z,37.47
2022-08-17T12:28:06.558Z,40.75
2022-08-17T12:30:31.170Z,39.55
2022-08-17T12:32:55.588Z,41.33
2022-08-17T12:35:35.378Z,37.80
2022-08-17T12:37:59.746Z,39.00
2022-08-17T12:40:28.172Z,39.55
2022-08-17T12:43:00.787Z,39.78
2022-08-17T12:45:29.393Z,38.85
2022-08-17T12:48:06.545Z,39.50
2022-08-17T12:50:30.416Z,40.15
2022-08-17T12:52:59.724Z,40.97
2022-08-17T12:55:27.089Z,40.90
2022-08-17T12:57:59.747Z,38.28
2022-08-17T13:00:31.248Z,38.97
2022-08-17T13:03:00.276Z,40.03
2022-08-17T13:05:29.525Z,40.80
2022-08-17T13:07:54.884Z,40.13
2022-08-17T13:10:28.613Z,40.50
2022-08-17T13:12:58.054Z,38.38
2022-08-17T13:15:27.588Z,42.47
2022-08-17T13:18:01.651Z,44.22
2022-08-17T13:20:25.477Z,43.85
2022-08-17T13:22:57.048Z,41.03
2022-08-17T13:25:20.711Z,40.28
2022-08-17T13:27:53.716Z,42.35
2022-08-17T13:30:28.024Z,43.00
2022-08-17T13:32:53.957Z,43.17
2022-08-17T13:35:50.177Z,39.67
2022-08-17T13:38:18.375Z,41.17
2022-08-17T13:40:53.286Z,38.97
2022-08-17T13:43:45.663Z,45.10
2022-08-17T13:46:13.742Z,41.45
2022-08-17T13:48:37.367Z,44.72
2022-08-17T13:51:31.068Z,46.78
2022-08-17T13:54:00.628Z,42.33
2022-08-17T13:56:39.331Z,42.20
2022-08-17T13:59:06.728Z,43.95
2022-08-17T14:01:35.900Z,44.03
2022-08-17T14:04:01.674Z,44.63
2022-08-17T14:06:52.582Z,46.65
2022-08-17T14:09:10.600Z,48.58
2022-08-17T14:11:34.168Z,47.30
2022-08-17T14:13:58.747Z,46.65
2022-08-17T14:16:22.488Z,46.72
2022-08-17T14:18:56.701Z,44.92
2022-08-17T14:21:20.870Z,45.35
2022-08-17T14:23:49.088Z,46.40
2022-08-17T14:26:18.835Z,48.85
2022-08-17T14:28:54.635Z,44.78
2022-08-17T14:31:20.663Z,44.60
2022-08-17T14:33:44.240Z,46.08
2022-08-17T14:36:09.606Z,47.88
2022-08-17T14:38:33.528Z,41.58
2022-08-17T14:40:57.271Z,44.53
2022-08-17T14:43:21.114Z,42.40
2022-08-17T14:45:45.162Z,47.28
2022-08-17T14:48:12.014Z,43.38
2022-08-17T14:50:36.535Z,44.33
2022-08-17T14:53:04.464Z,44.85
2022-08-17T14:55:28.390Z,47.40
2022-08-17T14:57:52.109Z,44.42
2022-08-17T15:00:17.474Z,42.70
2022-08-17T15:02:48.358Z,42.03
2022-08-17T15:05:12.143Z,40.75
2022-08-17T15:07:35.703Z,39.55
2022-08-17T15:10:01.481Z,43.03
2022-08-17T15:12:31.842Z,41.30
2022-08-17T15:14:57.084Z,38.22
2022-08-17T15:17:20.680Z,39.92
2022-08-17T15:19:44.369Z,40.80
2022-08-17T15:22:08.070Z,39.58
2022-08-17T15:24:31.687Z,36.75
2022-08-17T15:26:56.703Z,36.55
2022-08-17T15:29:20.287Z,35.92
2022-08-17T15:31:43.929Z,37.97
2022-08-17T15:34:07.993Z,41.03
2022-08-17T15:36:32.636Z,37.05
2022-08-17T15:38:56.185Z,37.83
2022-08-17T15:41:20.842Z,36.92
2022-08-17T15:43:47.133Z,36.47
2022-08-17T15:46:15.082Z,35.00
2022-08-17T15:48:42.754Z,36.20
2022-08-17T15:51:06.418Z,35.78
2022-08-17T15:53:30.017Z,35.58
2022-08-17T15:55:53.673Z,27.63
2022-08-17T15:58:17.232Z,21.58
2022-08-17T16:01:14.030Z,21.52
2022-08-17T16:03:58.353Z,24.10
2022-08-17T16:06:13.523Z,23.65
2022-08-17T16:08:37.677Z,28.75
2022-08-17T16:11:03.525Z,29.88
2022-08-17T16:13:28.872Z,31.45
2022-08-17T16:15:56.945Z,34.28
2022-08-17T16:18:21.209Z,33.33
2022-08-17T16:20:44.858Z,31.75
2022-08-17T16:23:09.121Z,32.40
2022-08-17T16:25:52.461Z,34.13
2022-08-17T16:28:18.273Z,32.97
2022-08-17T16:30:42.371Z,35.15
2022-08-17T16:33:07.761Z,34.50
2022-08-17T16:35:31.483Z,33.22
2022-08-17T16:37:55.887Z,32.33
2022-08-17T16:40:21.824Z,32.40
2022-08-17T16:42:49.041Z,33.15
2022-08-17T16:45:18.469Z,31.25
2022-08-17T16:47:42.925Z,27.45
2022-08-17T16:50:10.394Z,29.38
2022-08-17T16:52:34.618Z,33.67
2022-08-17T16:54:58.575Z,30.45
2022-08-17T16:57:23.150Z,29.23
2022-08-17T17:00:11.839Z,28.95
2022-08-17T17:02:39.089Z,27.70
2022-08-17T17:05:18.106Z,28.63
2022-08-17T17:08:12.675Z,27.25
2022-08-17T17:10:41.408Z,28.33
2022-08-17T17:13:06.911Z,26.98
2022-08-17T17:15:51.813Z,24.50
2022-08-17T17:18:17.195Z,22.90
2022-08-17T17:20:49.294Z,20.50
2022-08-17T17:23:35.433Z,21.90
2022-08-17T17:26:24.630Z,20.20
2022-08-17T17:29:12.877Z,22.20
2022-08-17T17:31:49.231Z,22.77
2022-08-17T17:34:16.994Z,24.20
2022-08-17T17:36:47.112Z,20.02
2022-08-17T17:39:19.092Z,22.48
2022-08-17T17:41:49.714Z,22.42
2022-08-17T17:44:19.881Z,22.98
2022-08-17T17:46:47.035Z,20.98
2022-08-17T17:49:14.121Z,23.48
2022-08-17T17:52:09.076Z,20.80
2022-08-17T17:54:52.311Z,21.55
2022-08-17T17:57:25.731Z,19.15
2022-08-17T18:00:00.828Z,19.52
2022-08-17T18:02:51.774Z,18.33
2022-08-17T18:05:34.228Z,20.40
2022-08-17T18:08:10.956Z,20.95
2022-08-17T18:10:44.898Z,20.98
2022-08-17T18:13:21.219Z,18.13
2022-08-17T18:15:53.216Z,19.98
2022-08-17T18:18:38.727Z,18.00
2022-08-17T18:21:06.690Z,17.30
2022-08-17T18:23:31.796Z,17.90
2022-08-17T18:25:56.521Z,17.80
2022-08-17T18:28:28.611Z,16.88
2022-08-17T18:31:13.004Z,16.20
2022-08-17T18:33:38.179Z,17.30
2022-08-17T18:36:02.430Z,14.85
2022-08-17T18:38:33.991Z,15.05
2022-08-17T18:41:06.867Z,13.20
2022-08-17T18:43:44.045Z,13.88
2022-08-17T18:46:38.371Z,14.13
2022-08-17T18:49:04.917Z,13.02
2022-08-17T18:51:40.752Z,14.38
2022-08-17T18:54:19.824Z,14.00
2022-08-17T18:56:45.694Z,13.07
2022-08-17T18:59:27.976Z,15.43
2022-08-17T19:02:38.799Z,15.35
2022-08-17T19:05:13.346Z,17.63
2022-08-17T19:07:40.946Z,16.67
2022-08-17T19:10:17.946Z,17.85
2022-08-17T19:12:50.582Z,17.10
2022-08-17T19:15:18.547Z,16.85
2022-08-17T19:17:49.451Z,19.33
2022-08-17T19:20:21.009Z,17.60
2022-08-17T19:22:55.434Z,18.35
2022-08-17T19:25:27.188Z,19.00
2022-08-17T19:27:57.752Z,18.83
2022-08-17T19:30:22.171Z,19.00
2022-08-17T19:32:45.742Z,17.98
2022-08-17T19:35:17.155Z,19.52
2022-08-17T19:37:49.488Z,18.92
2022-08-17T19:40:51.581Z,20.13
2022-08-17T19:43:24.378Z,20.20
2022-08-17T19:46:01.383Z,21.38
2022-08-17T19:48:40.872Z,20.38
2022-08-17T19:51:09.909Z,21.17
2022-08-17T19:54:04.442Z,21.98
2022-08-17T19:56:34.606Z,20.67
2022-08-17T19:59:07.341Z,21.77
2022-08-17T20:01:42.541Z,22.55
2022-08-17T20:04:13.835Z,22.35
2022-08-17T20:06:42.964Z,22.67
2022-08-17T20:09:18.329Z,22.50
2022-08-17T20:11:49.401Z,22.83
2022-08-17T20:14:16.506Z,22.25
2022-08-17T20:16:40.309Z,24.10
2022-08-17T20:19:08.916Z,24.23
2022-08-17T20:21:43.948Z,26.25
2022-08-17T20:24:19.947Z,25.75
2022-08-17T20:26:57.928Z,25.65
2022-08-17T20:29:40.329Z,26.27
2022-08-17T20:32:27.659Z,29.35
2022-08-17T20:35:20.036Z,28.45
2022-08-17T20:37:53.213Z,28.90
2022-08-17T20:40:26.215Z,29.02
2022-08-17T20:42:51.936Z,30.15
2022-08-17T20:46:05.732Z,30.70
2022-08-17T20:48:38.721Z,33.20
2022-08-17T20:51:26.020Z,32.97
2022-08-17T20:54:45.430Z,31.88
2022-08-17T20:57:13.971Z,31.15
2022-08-17T21:00:15.196Z,30.75
2022-08-17T21:02:39.102Z,31.20
2022-08-17T21:05:32.348Z,32.88
2022-08-17T21:08:02.177Z,32.13
2022-08-17T21:10:39.063Z,33.63
2022-08-17T21:13:23.899Z,33.13
2022-08-17T21:15:58.988Z,36.00
2022-08-17T21:18:38.663Z,36.03
2022-08-17T21:21:18.268Z,35.95
2022-08-17T21:24:04.645Z,36.78
2022-08-17T21:26:50.618Z,36.95
2022-08-17T21:29:31.447Z,37.65
2022-08-17T21:32:24.728Z,37.58
2022-08-17T21:35:28.763Z,38.60
2022-08-17T21:37:58.447Z,39.45
2022-08-17T21:40:27.430Z,40.25
2022-08-17T21:42:55.598Z,39.08
2022-08-17T21:45:28.421Z,41.70
2022-08-17T21:48:13.368Z,42.88
2022-08-17T21:50:38.146Z,44.85
2022-08-17T21:53:03.358Z,43.58
2022-08-17T21:55:30.048Z,46.22
2022-08-17T21:58:13.927Z,46.85
2022-08-17T22:00:38.520Z,45.50
2022-08-17T22:03:06.739Z,49.20
2022-08-17T22:05:34.621Z,47.13
2022-08-17T22:08:06.413Z,46.88
2022-08-17T22:10:33.486Z,48.55
2022-08-17T22:13:16.518Z,48.42
2022-08-17T22:15:46.227Z,52.28
2022-08-17T22:18:19.628Z,51.95
2022-08-17T22:20:43.399Z,50.83
2022-08-17T22:23:32.022Z,51.38
2022-08-17T22:26:02.741Z,51.20
2022-08-17T22:28:41.008Z,50.05
2022-08-17T22:31:06.938Z,51.60
2022-08-17T22:33:39.695Z,52.17
2022-08-17T22:36:29.102Z,51.53
2022-08-17T22:38:55.273Z,55.05
2022-08-17T22:41:51.152Z,50.22
2022-08-17T22:44:25.436Z,53.03
2022-08-17T22:47:11.467Z,51.15
2022-08-17T22:49:53.291Z,52.42
2022-08-17T22:52:33.852Z,50.65
2022-08-17T22:55:26.291Z,53.15
2022-08-17T22:58:08.086Z,56.63
2022-08-17T23:00:38.359Z,54.05
2022-08-17T23:03:19.447Z,54.28
2022-08-17T23:05:48.203Z,57.53
2022-08-17T23:08:12.941Z,57.35
2022-08-17T23:10:37.428Z,56.30
2022-08-17T23:13:02.116Z,53.50
2022-08-17T23:15:26.289Z,54.92
2022-08-17T23:17:50.295Z,54.08
2022-08-17T23:20:18.632Z,53.33
2022-08-17T23:22:51.973Z,53.17
2022-08-17T23:25:30.338Z,52.47
2022-08-17T23:27:54.565Z,53.17
2022-08-17T23:30:18.950Z,52.47
2022-08-17T23:32:53.906Z,51.35
2022-08-17T23:35:17.983Z,52.50
2022-08-17T23:37:42.881Z,50.70
2022-08-17T23:40:08.587Z,53.80
2022-08-17T23:42:33.679Z,52.33
2022-08-17T23:44:57.392Z,50.53
2022-08-17T23:47:24.642Z,51.30
2022-08-17T23:49:48.579Z,50.58
2022-08-17T23:52:17.958Z,53.92
2022-08-17T23:54:47.851Z,54.40
2022-08-17T23:57:13.026Z,50.75
2022-08-17T23:59:37.365Z,52.03
